LNI880 WAPP-WAPF
Flight info
| Callsign | LNI880 |
|---|---|
| Flight time | 0h 58m |
| Altitude | 31000 |
| Route | GOMBY W54 FOLOT DCT NOMUR |
| Aircraft | B739/M-SDE2E3FGHIRWXY/LB1 |
Departure
| Time | 2026-04-12 13:07 |
|---|---|
| Airport | Pattimura International Airport (WAPP) |
Arrival
| Time | 2026-04-12 14:05 |
|---|---|
| Airport | Karel Sadsuitubun Airport (WAPF) |
| Time | Latitude | Longitude | Altitude | Speed | Heading |
|---|---|---|---|---|---|
| 2026-04-12 12:47 | -3.70633 | 128.08857 | 35 ft | 0 kts | 359° |
| 2026-04-12 12:57 | -3.70657 | 128.08857 | 35 ft | 4 kts | 1° |
| 2026-04-12 12:57 | -3.70681 | 128.08855 | 35 ft | 4 kts | 27° |
| 2026-04-12 12:57 | -3.70695 | 128.08838 | 35 ft | 4 kts | 83° |
| 2026-04-12 12:57 | -3.70696 | 128.08821 | 35 ft | 1 kts | 89° |
| 2026-04-12 12:58 | -3.70696 | 128.08818 | 35 ft | 0 kts | 89° |
| 2026-04-12 13:02 | -3.70696 | 128.08825 | 35 ft | 2 kts | 89° |
| 2026-04-12 13:02 | -3.70695 | 128.08854 | 35 ft | 6 kts | 89° |
| 2026-04-12 13:03 | -3.70695 | 128.08908 | 35 ft | 9 kts | 90° |
| 2026-04-12 13:03 | -3.70695 | 128.08985 | 35 ft | 13 kts | 90° |
| 2026-04-12 13:03 | -3.70711 | 128.09078 | 34 ft | 15 kts | 123° |
| 2026-04-12 13:03 | -3.70780 | 128.09150 | 34 ft | 14 kts | 129° |
| 2026-04-12 13:04 | -3.70759 | 128.09234 | 35 ft | 14 kts | 44° |
| 2026-04-12 13:04 | -3.70685 | 128.09306 | 35 ft | 16 kts | 45° |
| 2026-04-12 13:04 | -3.70601 | 128.09392 | 35 ft | 18 kts | 45° |
| 2026-04-12 13:04 | -3.70505 | 128.09486 | 33 ft | 20 kts | 44° |
| 2026-04-12 13:05 | -3.70401 | 128.09589 | 33 ft | 22 kts | 45° |
| 2026-04-12 13:05 | -3.70295 | 128.09686 | 33 ft | 19 kts | 27° |
| 2026-04-12 13:05 | -3.70233 | 128.09732 | 33 ft | 9 kts | 98° |
| 2026-04-12 13:05 | -3.70274 | 128.09717 | 33 ft | 8 kts | 229° |
| 2026-04-12 13:06 | -3.70288 | 128.09704 | 31 ft | 0 kts | 224° |
| 2026-04-12 13:06 | -3.70291 | 128.09700 | 33 ft | 8 kts | 224° |
| 2026-04-12 13:06 | -3.70501 | 128.09491 | 33 ft | 78 kts | 225° |
| 2026-04-12 13:06 | -3.71050 | 128.08944 | 33 ft | 140 kts | 225° |
| 2026-04-12 13:07 | -3.71855 | 128.08143 | 97 ft | 180 kts | 226° |
| 2026-04-12 13:07 | -3.72721 | 128.07283 | 830 ft | 172 kts | 225° |
| 2026-04-12 13:07 | -3.73602 | 128.06421 | 1480 ft | 178 kts | 226° |
| 2026-04-12 13:07 | -3.74486 | 128.05549 | 1987 ft | 189 kts | 226° |
| 2026-04-12 13:08 | -3.75493 | 128.04563 | 2204 ft | 214 kts | 226° |
| 2026-04-12 13:08 | -3.76614 | 128.03463 | 2439 ft | 236 kts | 225° |
| 2026-04-12 13:08 | -3.77848 | 128.02243 | 2725 ft | 260 kts | 225° |
| 2026-04-12 13:08 | -3.79135 | 128.00971 | 3526 ft | 261 kts | 224° |
| 2026-04-12 13:09 | -3.80433 | 127.99690 | 4305 ft | 264 kts | 223° |
| 2026-04-12 13:09 | -3.81761 | 127.98379 | 4971 ft | 271 kts | 224° |
| 2026-04-12 13:09 | -3.83111 | 127.97048 | 5761 ft | 272 kts | 224° |
| 2026-04-12 13:09 | -3.84468 | 127.95711 | 6467 ft | 276 kts | 224° |
| 2026-04-12 13:10 | -3.85907 | 127.94414 | 7184 ft | 280 kts | 211° |
| 2026-04-12 13:10 | -3.87744 | 127.93815 | 7898 ft | 282 kts | 182° |
| 2026-04-12 13:10 | -3.89678 | 127.94138 | 8544 ft | 287 kts | 157° |
| 2026-04-12 13:10 | -3.91303 | 127.95311 | 9138 ft | 295 kts | 130° |
| 2026-04-12 13:11 | -3.92219 | 127.97147 | 9744 ft | 301 kts | 102° |
| 2026-04-12 13:11 | -3.92389 | 127.99258 | 10267 ft | 311 kts | 91° |
| 2026-04-12 13:11 | -3.92405 | 128.01500 | 10417 ft | 332 kts | 90° |
| 2026-04-12 13:11 | -3.92394 | 128.03878 | 10557 ft | 351 kts | 90° |
| 2026-04-12 13:12 | -3.92387 | 128.06380 | 10803 ft | 366 kts | 90° |
| 2026-04-12 13:12 | -3.92392 | 128.08949 | 11297 ft | 371 kts | 90° |
| 2026-04-12 13:12 | -3.92409 | 128.11543 | 11851 ft | 374 kts | 90° |
| 2026-04-12 13:12 | -3.92432 | 128.14166 | 12375 ft | 379 kts | 90° |
| 2026-04-12 13:13 | -3.92458 | 128.16813 | 12939 ft | 381 kts | 90° |
| 2026-04-12 13:13 | -3.92440 | 128.19473 | 13491 ft | 384 kts | 84° |
| 2026-04-12 13:13 | -3.91654 | 128.22011 | 13967 ft | 385 kts | 57° |
| 2026-04-12 13:13 | -3.89889 | 128.23954 | 14463 ft | 384 kts | 32° |
| 2026-04-12 13:14 | -3.87461 | 128.24985 | 14971 ft | 380 kts | 7° |
| 2026-04-12 13:14 | -3.84848 | 128.24894 | 15445 ft | 378 kts | 342° |
| 2026-04-12 13:14 | -3.82500 | 128.23752 | 15931 ft | 376 kts | 324° |
| 2026-04-12 13:14 | -3.80390 | 128.22193 | 16412 ft | 379 kts | 323° |
| 2026-04-12 13:15 | -3.78132 | 128.20801 | 16857 ft | 383 kts | 332° |
| 2026-04-12 13:15 | -3.75623 | 128.19864 | 17310 ft | 388 kts | 345° |
| 2026-04-12 13:15 | -3.72957 | 128.19388 | 17800 ft | 390 kts | 349° |
| 2026-04-12 13:15 | -3.70234 | 128.19298 | 18155 ft | 398 kts | 9° |
| 2026-04-12 13:16 | -3.67644 | 128.20308 | 18532 ft | 406 kts | 33° |
| 2026-04-12 13:16 | -3.65643 | 128.22305 | 18937 ft | 413 kts | 57° |
| 2026-04-12 13:16 | -3.64570 | 128.24965 | 19324 ft | 417 kts | 80° |
| 2026-04-12 13:16 | -3.64604 | 128.27872 | 19644 ft | 422 kts | 103° |
| 2026-04-12 13:17 | -3.65764 | 128.30557 | 19973 ft | 423 kts | 127° |
| 2026-04-12 13:17 | -3.67501 | 128.32935 | 20360 ft | 425 kts | 123° |
| 2026-04-12 13:17 | -3.68951 | 128.35526 | 20708 ft | 428 kts | 117° |
| 2026-04-12 13:17 | -3.70213 | 128.38234 | 21037 ft | 431 kts | 114° |
| 2026-04-12 13:18 | -3.71398 | 128.40999 | 21377 ft | 433 kts | 113° |
| 2026-04-12 13:18 | -3.72562 | 128.43786 | 21719 ft | 435 kts | 113° |
| 2026-04-12 13:18 | -3.74917 | 128.49396 | 22312 ft | 440 kts | 114° |
| 2026-04-12 13:19 | -3.76122 | 128.52217 | 22614 ft | 441 kts | 114° |
| 2026-04-12 13:19 | -3.77340 | 128.55046 | 22895 ft | 444 kts | 114° |
| 2026-04-12 13:19 | -3.78568 | 128.57884 | 23154 ft | 446 kts | 114° |
| 2026-04-12 13:19 | -3.79808 | 128.60743 | 23436 ft | 448 kts | 114° |
| 2026-04-12 13:20 | -3.81051 | 128.63602 | 23719 ft | 449 kts | 114° |
| 2026-04-12 13:20 | -3.82299 | 128.66476 | 23967 ft | 451 kts | 114° |
| 2026-04-12 13:20 | -3.83553 | 128.69362 | 24205 ft | 453 kts | 114° |
| 2026-04-12 13:20 | -3.84811 | 128.72258 | 24456 ft | 455 kts | 114° |
| 2026-04-12 13:21 | -3.86056 | 128.75126 | 24709 ft | 456 kts | 114° |
| 2026-04-12 13:21 | -3.87338 | 128.78076 | 24960 ft | 457 kts | 114° |
| 2026-04-12 13:21 | -3.88609 | 128.81003 | 25192 ft | 459 kts | 114° |
| 2026-04-12 13:21 | -3.89882 | 128.83936 | 25429 ft | 460 kts | 114° |
| 2026-04-12 13:22 | -3.91155 | 128.86869 | 25681 ft | 460 kts | 114° |
| 2026-04-12 13:22 | -3.92417 | 128.89776 | 25898 ft | 462 kts | 114° |
| 2026-04-12 13:22 | -3.93718 | 128.92772 | 26102 ft | 463 kts | 114° |
| 2026-04-12 13:22 | -3.95002 | 128.95734 | 26309 ft | 465 kts | 114° |
| 2026-04-12 13:23 | -3.96275 | 128.98669 | 26531 ft | 466 kts | 114° |
| 2026-04-12 13:23 | -3.97567 | 129.01649 | 26732 ft | 467 kts | 114° |
| 2026-04-12 13:23 | -3.98863 | 129.04637 | 26932 ft | 468 kts | 114° |
| 2026-04-12 13:23 | -4.00161 | 129.07632 | 27125 ft | 469 kts | 114° |
| 2026-04-12 13:24 | -4.01465 | 129.10637 | 27320 ft | 470 kts | 114° |
| 2026-04-12 13:24 | -4.02784 | 129.13680 | 27549 ft | 470 kts | 114° |
| 2026-04-12 13:24 | -4.04070 | 129.16646 | 27727 ft | 472 kts | 114° |
| 2026-04-12 13:24 | -4.05378 | 129.19666 | 27901 ft | 473 kts | 114° |
| 2026-04-12 13:25 | -4.06707 | 129.22735 | 28070 ft | 474 kts | 114° |
| 2026-04-12 13:25 | -4.08004 | 129.25728 | 28241 ft | 475 kts | 114° |
| 2026-04-12 13:25 | -4.09339 | 129.28808 | 28410 ft | 476 kts | 114° |
| 2026-04-12 13:25 | -4.10642 | 129.31815 | 28575 ft | 478 kts | 114° |
| 2026-04-12 13:26 | -4.11984 | 129.34914 | 28740 ft | 479 kts | 114° |
| 2026-04-12 13:26 | -4.13293 | 129.37936 | 28914 ft | 480 kts | 114° |
| 2026-04-12 13:26 | -4.14619 | 129.41000 | 29157 ft | 479 kts | 114° |
| 2026-04-12 13:26 | -4.15941 | 129.44054 | 29433 ft | 477 kts | 114° |
| 2026-04-12 13:27 | -4.17260 | 129.47101 | 29701 ft | 476 kts | 114° |
| 2026-04-12 13:27 | -4.18577 | 129.50146 | 29943 ft | 476 kts | 114° |
| 2026-04-12 13:27 | -4.19893 | 129.53188 | 30201 ft | 476 kts | 114° |
| 2026-04-12 13:27 | -4.21207 | 129.56222 | 30481 ft | 474 kts | 114° |
| 2026-04-12 13:28 | -4.22093 | 129.58270 | 30665 ft | 474 kts | 114° |
| 2026-04-12 13:28 | -4.23828 | 129.62281 | 30924 ft | 474 kts | 114° |
| 2026-04-12 13:28 | -4.25143 | 129.65322 | 30909 ft | 476 kts | 114° |
| 2026-04-12 13:29 | -4.27766 | 129.71391 | 30913 ft | 474 kts | 114° |
| 2026-04-12 13:29 | -4.30479 | 129.77386 | 30918 ft | 471 kts | 116° |
| 2026-04-12 13:30 | -4.32797 | 129.82318 | 30914 ft | 471 kts | 116° |
| 2026-04-12 13:30 | -4.36046 | 129.89246 | 30919 ft | 470 kts | 116° |
| 2026-04-12 13:31 | -4.38814 | 129.95187 | 30921 ft | 470 kts | 116° |
| 2026-04-12 13:31 | -4.41575 | 130.01134 | 30916 ft | 471 kts | 116° |
| 2026-04-12 13:32 | -4.44340 | 130.07094 | 30918 ft | 472 kts | 116° |
| 2026-04-12 13:32 | -4.47110 | 130.13066 | 30918 ft | 473 kts | 116° |
| 2026-04-12 13:33 | -4.49884 | 130.19048 | 30920 ft | 474 kts | 116° |
| 2026-04-12 13:33 | -4.52661 | 130.25037 | 30916 ft | 474 kts | 116° |
| 2026-04-12 13:34 | -4.55442 | 130.31036 | 30918 ft | 475 kts | 116° |
| 2026-04-12 13:34 | -4.58224 | 130.37039 | 30917 ft | 475 kts | 116° |
| 2026-04-12 13:35 | -4.60987 | 130.43002 | 30917 ft | 475 kts | 116° |
| 2026-04-12 13:35 | -4.63786 | 130.49041 | 30916 ft | 474 kts | 116° |
| 2026-04-12 13:36 | -4.66543 | 130.54993 | 30912 ft | 474 kts | 116° |
| 2026-04-12 13:36 | -4.68866 | 130.60014 | 30915 ft | 473 kts | 116° |
| 2026-04-12 13:37 | -4.72083 | 130.66964 | 30915 ft | 472 kts | 116° |
| 2026-04-12 13:37 | -4.74843 | 130.72931 | 30921 ft | 471 kts | 116° |
| 2026-04-12 13:38 | -4.77599 | 130.78890 | 30929 ft | 471 kts | 116° |
| 2026-04-12 13:38 | -4.80355 | 130.84848 | 30928 ft | 471 kts | 116° |
| 2026-04-12 13:39 | -4.83115 | 130.90817 | 30926 ft | 472 kts | 116° |
| 2026-04-12 13:39 | -4.85874 | 130.96786 | 30926 ft | 472 kts | 116° |
| 2026-04-12 13:40 | -4.88639 | 131.02768 | 30929 ft | 473 kts | 116° |
| 2026-04-12 13:40 | -4.91404 | 131.08753 | 30926 ft | 473 kts | 116° |
| 2026-04-12 13:41 | -4.94167 | 131.14737 | 30930 ft | 473 kts | 116° |
| 2026-04-12 13:41 | -4.96935 | 131.20730 | 30928 ft | 474 kts | 116° |
| 2026-04-12 13:42 | -4.99703 | 131.26725 | 30925 ft | 474 kts | 116° |
| 2026-04-12 13:42 | -5.02468 | 131.32720 | 30925 ft | 472 kts | 116° |
| 2026-04-12 13:43 | -5.04723 | 131.37612 | 30502 ft | 460 kts | 116° |
| 2026-04-12 13:43 | -5.06056 | 131.40501 | 30074 ft | 454 kts | 116° |
| 2026-04-12 13:43 | -5.07377 | 131.43367 | 29569 ft | 450 kts | 116° |
| 2026-04-12 13:43 | -5.08684 | 131.46201 | 29073 ft | 446 kts | 116° |
| 2026-04-12 13:44 | -5.09979 | 131.49010 | 28567 ft | 442 kts | 116° |
| 2026-04-12 13:44 | -5.11265 | 131.51800 | 28062 ft | 438 kts | 116° |
| 2026-04-12 13:44 | -5.12538 | 131.54561 | 27558 ft | 435 kts | 116° |
| 2026-04-12 13:44 | -5.13804 | 131.57303 | 27057 ft | 431 kts | 116° |
| 2026-04-12 13:45 | -5.15066 | 131.60026 | 26556 ft | 428 kts | 116° |
| 2026-04-12 13:45 | -5.16320 | 131.62721 | 26056 ft | 425 kts | 116° |
| 2026-04-12 13:45 | -5.17566 | 131.65398 | 25572 ft | 422 kts | 116° |
| 2026-04-12 13:45 | -5.18805 | 131.68060 | 25073 ft | 419 kts | 116° |
| 2026-04-12 13:46 | -5.20031 | 131.70696 | 24586 ft | 416 kts | 116° |
| 2026-04-12 13:46 | -5.21249 | 131.73316 | 24101 ft | 413 kts | 116° |
| 2026-04-12 13:46 | -5.22460 | 131.75922 | 23619 ft | 410 kts | 116° |
| 2026-04-12 13:46 | -5.23660 | 131.78508 | 23150 ft | 407 kts | 116° |
| 2026-04-12 13:47 | -5.24852 | 131.81076 | 22676 ft | 405 kts | 116° |
| 2026-04-12 13:47 | -5.26037 | 131.83630 | 22190 ft | 402 kts | 116° |
| 2026-04-12 13:47 | -5.27212 | 131.86161 | 21728 ft | 399 kts | 116° |
| 2026-04-12 13:47 | -5.28379 | 131.88677 | 21262 ft | 396 kts | 116° |
| 2026-04-12 13:48 | -5.29537 | 131.91170 | 20798 ft | 393 kts | 116° |
| 2026-04-12 13:48 | -5.30686 | 131.93644 | 20342 ft | 390 kts | 116° |
| 2026-04-12 13:48 | -5.31825 | 131.96098 | 19892 ft | 387 kts | 115° |
| 2026-04-12 13:48 | -5.32955 | 131.98537 | 19436 ft | 384 kts | 115° |
| 2026-04-12 13:49 | -5.34079 | 132.00960 | 18986 ft | 382 kts | 115° |
| 2026-04-12 13:49 | -5.35197 | 132.03369 | 18532 ft | 379 kts | 115° |
| 2026-04-12 13:49 | -5.36304 | 132.05758 | 18089 ft | 376 kts | 115° |
| 2026-04-12 13:49 | -5.37404 | 132.08134 | 17640 ft | 374 kts | 115° |
| 2026-04-12 13:50 | -5.38496 | 132.10489 | 17200 ft | 371 kts | 115° |
| 2026-04-12 13:50 | -5.39580 | 132.12830 | 16763 ft | 369 kts | 115° |
| 2026-04-12 13:50 | -5.40658 | 132.15156 | 16324 ft | 366 kts | 115° |
| 2026-04-12 13:50 | -5.41728 | 132.17464 | 15885 ft | 364 kts | 115° |
| 2026-04-12 13:51 | -5.42792 | 132.19759 | 15451 ft | 362 kts | 116° |
| 2026-04-12 13:51 | -5.43850 | 132.22043 | 15018 ft | 360 kts | 116° |
| 2026-04-12 13:51 | -5.44903 | 132.24317 | 14587 ft | 358 kts | 116° |
| 2026-04-12 13:51 | -5.45950 | 132.26577 | 14160 ft | 356 kts | 116° |
| 2026-04-12 13:52 | -5.46992 | 132.28828 | 13735 ft | 354 kts | 116° |
| 2026-04-12 13:52 | -5.48014 | 132.31036 | 13317 ft | 353 kts | 116° |
| 2026-04-12 13:52 | -5.49045 | 132.33261 | 12890 ft | 351 kts | 116° |
| 2026-04-12 13:52 | -5.50072 | 132.35480 | 12462 ft | 350 kts | 116° |
| 2026-04-12 13:53 | -5.51095 | 132.37689 | 12039 ft | 348 kts | 116° |
| 2026-04-12 13:53 | -5.52110 | 132.39890 | 11587 ft | 347 kts | 116° |
| 2026-04-12 13:53 | -5.53112 | 132.42104 | 11084 ft | 349 kts | 116° |
| 2026-04-12 13:53 | -5.54106 | 132.44318 | 10651 ft | 347 kts | 115° |
| 2026-04-12 13:54 | -5.55089 | 132.46510 | 10406 ft | 340 kts | 115° |
| 2026-04-12 13:54 | -5.56044 | 132.48638 | 10252 ft | 329 kts | 115° |
| 2026-04-12 13:54 | -5.56971 | 132.50702 | 10109 ft | 320 kts | 115° |
| 2026-04-12 13:54 | -5.57875 | 132.52711 | 9961 ft | 311 kts | 116° |
| 2026-04-12 13:55 | -5.58763 | 132.54683 | 9604 ft | 309 kts | 115° |
| 2026-04-12 13:55 | -5.59642 | 132.56636 | 9298 ft | 307 kts | 115° |
| 2026-04-12 13:55 | -5.60518 | 132.58583 | 8961 ft | 305 kts | 115° |
| 2026-04-12 13:55 | -5.61637 | 132.60358 | 8598 ft | 300 kts | 138° |
| 2026-04-12 13:56 | -5.63256 | 132.61629 | 8354 ft | 294 kts | 146° |
| 2026-04-12 13:56 | -5.64937 | 132.62794 | 8008 ft | 293 kts | 147° |
| 2026-04-12 13:56 | -5.66618 | 132.63940 | 7665 ft | 292 kts | 147° |
| 2026-04-12 13:56 | -5.68294 | 132.65086 | 7329 ft | 291 kts | 146° |
| 2026-04-12 13:57 | -5.69963 | 132.66235 | 6977 ft | 290 kts | 146° |
| 2026-04-12 13:57 | -5.71619 | 132.67379 | 6632 ft | 287 kts | 146° |
| 2026-04-12 13:57 | -5.73231 | 132.68498 | 6179 ft | 279 kts | 146° |
| 2026-04-12 13:57 | -5.74792 | 132.69587 | 5752 ft | 267 kts | 146° |
| 2026-04-12 13:58 | -5.76304 | 132.70641 | 5402 ft | 262 kts | 146° |
| 2026-04-12 13:58 | -5.77784 | 132.71670 | 5099 ft | 256 kts | 146° |
| 2026-04-12 13:58 | -5.79220 | 132.72672 | 4846 ft | 247 kts | 146° |
| 2026-04-12 13:58 | -5.80606 | 132.73639 | 4601 ft | 239 kts | 146° |
| 2026-04-12 13:59 | -5.81943 | 132.74574 | 4366 ft | 230 kts | 146° |
| 2026-04-12 13:59 | -5.83238 | 132.75476 | 4157 ft | 224 kts | 146° |
| 2026-04-12 13:59 | -5.84474 | 132.76342 | 4086 ft | 210 kts | 146° |
| 2026-04-12 13:59 | -5.85627 | 132.77150 | 4038 ft | 193 kts | 146° |
| 2026-04-12 14:00 | -5.86698 | 132.77895 | 4026 ft | 186 kts | 146° |
| 2026-04-12 14:00 | -5.87759 | 132.78636 | 3959 ft | 186 kts | 146° |
| 2026-04-12 14:00 | -5.88817 | 132.79374 | 3895 ft | 187 kts | 146° |
| 2026-04-12 14:00 | -5.89819 | 132.80231 | 3608 ft | 195 kts | 124° |
| 2026-04-12 14:01 | -5.90107 | 132.81514 | 3396 ft | 188 kts | 80° |
| 2026-04-12 14:01 | -5.89514 | 132.82637 | 3179 ft | 188 kts | 43° |
| 2026-04-12 14:01 | -5.88386 | 132.83291 | 3002 ft | 189 kts | 25° |
| 2026-04-12 14:01 | -5.87160 | 132.83821 | 2767 ft | 195 kts | 24° |
| 2026-04-12 14:02 | -5.85904 | 132.84351 | 2504 ft | 195 kts | 23° |
| 2026-04-12 14:02 | -5.84596 | 132.84569 | 2213 ft | 189 kts | 347° |
| 2026-04-12 14:02 | -5.83488 | 132.83965 | 2050 ft | 182 kts | 316° |
| 2026-04-12 14:02 | -5.82597 | 132.83067 | 1855 ft | 177 kts | 312° |
| 2026-04-12 14:03 | -5.81769 | 132.82181 | 1554 ft | 169 kts | 311° |
| 2026-04-12 14:03 | -5.80983 | 132.81324 | 1340 ft | 166 kts | 311° |
| 2026-04-12 14:03 | -5.80193 | 132.80471 | 1145 ft | 167 kts | 311° |
| 2026-04-12 14:03 | -5.79398 | 132.79617 | 949 ft | 168 kts | 311° |
| 2026-04-12 14:04 | -5.78601 | 132.78748 | 776 ft | 171 kts | 311° |
| 2026-04-12 14:04 | -5.77790 | 132.77862 | 504 ft | 173 kts | 311° |
| 2026-04-12 14:04 | -5.76970 | 132.76994 | 225 ft | 170 kts | 313° |
| 2026-04-12 14:04 | -5.76177 | 132.76155 | 68 ft | 157 kts | 313° |
| 2026-04-12 14:05 | -5.75570 | 132.75508 | 73 ft | 82 kts | 313° |
| 2026-04-12 14:05 | -5.75337 | 132.75260 | 68 ft | 18 kts | 313° |
| 2026-04-12 14:05 | -5.75303 | 132.75207 | 65 ft | 8 kts | 130° |
| 2026-04-12 14:06 | -5.75339 | 132.75254 | 69 ft | 9 kts | 128° |
| 2026-04-12 14:06 | -5.75386 | 132.75312 | 73 ft | 12 kts | 132° |
| 2026-04-12 14:06 | -5.75448 | 132.75380 | 67 ft | 14 kts | 133° |
| 2026-04-12 14:06 | -5.75515 | 132.75451 | 76 ft | 14 kts | 133° |
| 2026-04-12 14:07 | -5.75582 | 132.75522 | 71 ft | 15 kts | 133° |
| 2026-04-12 14:07 | -5.75661 | 132.75606 | 65 ft | 18 kts | 133° |
| 2026-04-12 14:07 | -5.75748 | 132.75699 | 69 ft | 18 kts | 133° |
| 2026-04-12 14:07 | -5.75777 | 132.75777 | 69 ft | 13 kts | 56° |
| 2026-04-12 14:08 | -5.75719 | 132.75846 | 66 ft | 14 kts | 75° |
| 2026-04-12 14:08 | -5.75756 | 132.75916 | 68 ft | 8 kts | 131° |
| 2026-04-12 14:08 | -5.75779 | 132.75954 | 66 ft | 6 kts | 85° |
| 2026-04-12 14:08 | -5.75761 | 132.75978 | 67 ft | 4 kts | 45° |
| 2026-04-12 14:09 | -5.75754 | 132.75985 | 71 ft | 0 kts | 45° |